Holyoke, Minnesota
Current Conditions -  °F | °C
As of 7:56 PM on Saturday 25 Oct 2014 (Local Time) from KCOQ Reporting Station
Clear Clear  
Wind Chill: 50°   Ceiling: Unl
Heat Index: 50°   Visibility: 10mi
Dew Point: 21°   Wind: 10mph
Humidity: 32%   Direction: 280°W
Pressure: 29.98"   Gusts: 18mph
Location:  46.47°N, 92.39°W
Report Text: KCOQ 260056Z AUTO 28009G16KT 10SM CLR 10/M06 A2998 RMK AO2
Loading
Personal Weather Stations






























Interactive Weather Map
Tropical Storm Tracking
New forecast layout! Learn more

10-Day Weather Forecast

Advertisements
Track Severe Weather on mobile